createdAt,value
2023-05-22T00:01:28.249Z,22.80
2023-05-22T00:03:55.574Z,22.70
2023-05-22T00:06:23.528Z,22.60
2023-05-22T00:08:50.647Z,22.40
2023-05-22T00:11:17.625Z,22.70
2023-05-22T00:13:44.713Z,22.60
2023-05-22T00:16:11.745Z,22.50
2023-05-22T00:18:42.520Z,22.50
2023-05-22T00:21:10.776Z,22.50
2023-05-22T00:23:37.990Z,22.50
2023-05-22T00:26:05.094Z,22.40
2023-05-22T00:28:32.181Z,22.40
2023-05-22T00:30:59.196Z,22.40
2023-05-22T00:33:26.245Z,22.30
2023-05-22T00:35:53.266Z,22.30
2023-05-22T00:38:32.824Z,22.30
2023-05-22T00:41:03.023Z,22.20
2023-05-22T00:43:30.350Z,22.20
2023-05-22T00:45:58.286Z,22.20
2023-05-22T00:48:26.907Z,22.20
2023-05-22T00:50:57.477Z,22.10
2023-05-22T00:53:26.248Z,22.10
2023-05-22T00:55:54.720Z,22.00
2023-05-22T00:58:23.037Z,21.80
2023-05-22T01:00:50.248Z,22.00
2023-05-22T01:03:19.021Z,21.90
2023-05-22T01:05:46.101Z,21.90
2023-05-22T01:08:13.212Z,21.90
2023-05-22T01:10:41.032Z,21.80
2023-05-22T01:13:39.865Z,21.80
2023-05-22T01:16:29.686Z,21.70
2023-05-22T01:19:31.735Z,21.70
2023-05-22T01:22:28.977Z,21.60
2023-05-22T01:25:17.111Z,21.60
2023-05-22T01:28:16.439Z,21.50
2023-05-22T01:31:08.153Z,21.40
2023-05-22T01:34:02.720Z,21.40
2023-05-22T01:36:35.145Z,21.30
2023-05-22T01:39:06.022Z,21.20
2023-05-22T01:41:34.552Z,21.20
2023-05-22T01:44:02.224Z,21.10
2023-05-22T01:46:30.356Z,21.20
2023-05-22T01:48:58.589Z,20.90
2023-05-22T01:52:27.840Z,20.90
2023-05-22T01:55:13.490Z,20.90
2023-05-22T01:57:56.036Z,20.90
2023-05-22T02:00:26.212Z,20.90
2023-05-22T02:03:08.063Z,20.80
2023-05-22T02:05:38.828Z,20.70
2023-05-22T02:08:06.521Z,20.60
2023-05-22T02:10:35.682Z,20.60
2023-05-22T02:13:03.037Z,20.60
2023-05-22T02:15:30.651Z,20.50
2023-05-22T02:18:03.212Z,20.50
2023-05-22T02:20:30.335Z,20.40
2023-05-22T02:22:58.118Z,20.40
2023-05-22T02:25:25.248Z,20.40
2023-05-22T02:27:52.221Z,20.30
2023-05-22T02:30:20.512Z,20.30
2023-05-22T02:32:50.433Z,20.30
2023-05-22T02:35:17.613Z,20.30
2023-05-22T02:37:45.514Z,20.20
2023-05-22T02:40:15.456Z,20.10
2023-05-22T02:42:42.641Z,20.10
2023-05-22T02:45:10.672Z,20.30
2023-05-22T02:47:37.824Z,20.10
2023-05-22T02:50:05.417Z,20.10
2023-05-22T02:52:35.209Z,20.10
2023-05-22T02:55:02.245Z,20.10
2023-05-22T02:57:29.212Z,20.00
2023-05-22T02:59:57.521Z,20.00
2023-05-22T03:02:32.414Z,20.00
2023-05-22T03:04:59.875Z,19.90
2023-05-22T03:07:29.411Z,20.00
2023-05-22T03:09:57.020Z,19.90
2023-05-22T03:12:24.311Z,19.90
2023-05-22T03:14:51.312Z,19.90
2023-05-22T03:17:18.319Z,19.90
2023-05-22T03:19:45.340Z,19.80
2023-05-22T03:22:12.453Z,19.80
2023-05-22T03:24:40.166Z,19.80
2023-05-22T03:27:07.705Z,19.80
2023-05-22T03:29:40.563Z,19.80
2023-05-22T03:32:07.945Z,19.70
2023-05-22T03:34:35.947Z,19.70
2023-05-22T03:37:04.184Z,19.70
2023-05-22T03:39:31.420Z,19.70
2023-05-22T03:42:02.709Z,19.60
2023-05-22T03:44:29.775Z,19.80
2023-05-22T03:46:56.920Z,19.70
2023-05-22T03:49:23.861Z,19.60
2023-05-22T03:51:51.049Z,19.60
2023-05-22T03:54:18.308Z,19.70
2023-05-22T03:56:45.538Z,19.60
2023-05-22T03:59:12.728Z,19.60
2023-05-22T04:01:39.953Z,19.60
2023-05-22T04:04:07.234Z,19.70
2023-05-22T04:06:43.161Z,19.60
2023-05-22T04:09:15.285Z,19.60
2023-05-22T04:11:42.504Z,19.60
2023-05-22T04:14:10.029Z,19.60
2023-05-22T04:16:37.120Z,19.50
2023-05-22T04:19:04.354Z,19.70
2023-05-22T04:21:35.731Z,19.70
2023-05-22T04:24:07.560Z,19.60
2023-05-22T04:26:34.842Z,19.70
2023-05-22T04:29:02.426Z,19.70
2023-05-22T04:31:29.782Z,19.90
2023-05-22T04:34:00.360Z,19.80
2023-05-22T04:36:28.065Z,19.90
2023-05-22T04:38:55.402Z,20.00
2023-05-22T04:41:26.629Z,19.90
2023-05-22T04:43:54.744Z,20.00
2023-05-22T04:46:22.507Z,20.20
2023-05-22T04:48:49.797Z,20.00
2023-05-22T04:51:17.024Z,20.20
2023-05-22T04:53:46.132Z,20.40
2023-05-22T04:56:16.570Z,20.30
2023-05-22T04:58:53.895Z,20.60
2023-05-22T05:01:21.917Z,20.50
2023-05-22T05:03:49.479Z,20.60
2023-05-22T05:06:17.313Z,20.70
2023-05-22T05:08:46.687Z,20.70
2023-05-22T05:11:14.080Z,20.80
2023-05-22T05:13:41.645Z,20.90
2023-05-22T05:16:08.697Z,20.90
2023-05-22T05:18:36.309Z,21.00
2023-05-22T05:21:03.345Z,21.10
2023-05-22T05:23:30.408Z,21.10
2023-05-22T05:25:57.920Z,21.20
2023-05-22T05:28:24.944Z,21.20
2023-05-22T05:30:52.591Z,21.30
2023-05-22T05:33:30.708Z,21.40
2023-05-22T05:36:06.456Z,21.30
2023-05-22T05:38:35.044Z,21.50
2023-05-22T05:41:02.702Z,21.50
2023-05-22T05:43:30.805Z,21.60
2023-05-22T05:46:04.134Z,21.60
2023-05-22T05:48:32.367Z,21.70
2023-05-22T05:51:00.135Z,21.70
2023-05-22T05:53:32.022Z,21.70
2023-05-22T05:55:59.753Z,21.70
2023-05-22T05:58:29.734Z,21.80
2023-05-22T06:01:15.838Z,21.80
2023-05-22T06:03:43.210Z,21.90
2023-05-22T06:06:13.977Z,21.90
2023-05-22T06:09:10.278Z,22.20
2023-05-22T06:11:56.359Z,22.10
2023-05-22T06:14:24.291Z,22.20
2023-05-22T06:16:51.629Z,22.20
2023-05-22T06:19:19.138Z,22.40
2023-05-22T06:21:46.468Z,22.40
2023-05-22T06:24:13.447Z,22.40
2023-05-22T06:26:40.609Z,22.60
2023-05-22T06:29:07.744Z,22.50
2023-05-22T06:31:38.173Z,22.60
2023-05-22T06:34:06.207Z,22.60
2023-05-22T06:36:34.753Z,22.80
2023-05-22T06:39:02.911Z,22.90
2023-05-22T06:41:58.912Z,23.10
2023-05-22T06:44:26.130Z,23.20
2023-05-22T06:46:57.752Z,23.30
2023-05-22T06:49:26.260Z,23.40
2023-05-22T06:51:55.123Z,23.50
2023-05-22T06:54:22.539Z,23.70
2023-05-22T06:56:59.575Z,23.80
2023-05-22T06:59:28.738Z,24.00
2023-05-22T07:02:08.040Z,24.10
2023-05-22T07:04:59.028Z,24.20
2023-05-22T07:07:32.878Z,24.40
2023-05-22T07:10:00.089Z,24.60
2023-05-22T07:12:28.334Z,24.60
2023-05-22T07:14:56.983Z,24.90
2023-05-22T07:17:26.041Z,25.00
2023-05-22T07:19:53.797Z,25.10
2023-05-22T07:22:22.441Z,25.30
2023-05-22T07:24:49.719Z,25.40
2023-05-22T07:27:18.463Z,25.60
2023-05-22T07:29:48.270Z,25.70
2023-05-22T07:32:15.363Z,25.90
2023-05-22T07:34:44.350Z,26.00
2023-05-22T07:37:13.689Z,26.20
2023-05-22T07:39:42.434Z,26.40
2023-05-22T07:42:10.112Z,26.50
2023-05-22T07:44:44.048Z,26.50
2023-05-22T07:47:11.186Z,26.90
2023-05-22T07:49:39.079Z,27.00
2023-05-22T07:52:07.134Z,27.20
2023-05-22T07:54:34.556Z,27.40
2023-05-22T07:57:03.438Z,27.50
2023-05-22T07:59:37.611Z,27.80
2023-05-22T08:02:05.021Z,28.10
2023-05-22T08:04:32.082Z,28.40
2023-05-22T08:06:59.248Z,28.60
2023-05-22T08:09:26.453Z,28.80
2023-05-22T08:11:53.688Z,29.10
2023-05-22T08:14:23.006Z,29.40
2023-05-22T08:16:50.107Z,29.70
2023-05-22T08:19:17.327Z,30.00
2023-05-22T08:21:44.642Z,30.30
2023-05-22T08:24:11.746Z,30.60
2023-05-22T08:26:40.382Z,30.90
2023-05-22T08:29:07.573Z,31.20
2023-05-22T08:31:35.812Z,31.60
2023-05-22T08:34:03.429Z,31.90
2023-05-22T08:36:34.081Z,32.40
2023-05-22T08:39:01.889Z,32.70
2023-05-22T08:41:29.972Z,33.00
2023-05-22T08:43:57.600Z,33.40
2023-05-22T08:46:29.224Z,33.90
2023-05-22T08:48:58.841Z,34.20
2023-05-22T08:51:31.445Z,34.60
2023-05-22T08:54:00.107Z,34.80
2023-05-22T08:56:29.498Z,35.00
2023-05-22T08:58:58.642Z,35.10
2023-05-22T09:01:26.170Z,35.10
2023-05-22T09:03:54.125Z,35.20
2023-05-22T09:06:21.216Z,35.20
2023-05-22T09:08:50.050Z,35.30
2023-05-22T09:11:18.607Z,35.50
2023-05-22T09:13:45.882Z,35.80
2023-05-22T09:16:13.889Z,36.10
2023-05-22T09:18:44.776Z,36.40
2023-05-22T09:21:28.955Z,36.70
2023-05-22T09:24:01.734Z,36.90
2023-05-22T09:26:29.574Z,37.10
2023-05-22T09:28:59.228Z,37.20
2023-05-22T09:31:27.600Z,37.30
2023-05-22T09:33:56.158Z,37.40
2023-05-22T09:36:33.788Z,37.50
2023-05-22T09:39:01.969Z,37.70
2023-05-22T09:41:32.386Z,37.90
2023-05-22T09:44:01.654Z,38.00
2023-05-22T09:46:29.289Z,38.10
2023-05-22T09:48:56.428Z,38.20
2023-05-22T09:51:26.803Z,38.20
2023-05-22T09:54:03.439Z,38.10
2023-05-22T09:56:39.076Z,38.10
2023-05-22T09:59:09.706Z,38.00
2023-05-22T10:01:39.183Z,37.80
2023-05-22T10:04:13.088Z,37.70
2023-05-22T10:06:42.213Z,37.50
2023-05-22T10:09:19.263Z,37.40
2023-05-22T10:11:49.001Z,37.40
2023-05-22T10:14:16.767Z,37.50
2023-05-22T10:16:45.241Z,37.70
2023-05-22T10:19:13.546Z,37.90
2023-05-22T10:21:42.128Z,38.20
2023-05-22T10:24:11.153Z,38.20
2023-05-22T10:26:39.287Z,38.40
2023-05-22T10:29:15.515Z,38.60
2023-05-22T10:32:06.813Z,38.70
2023-05-22T10:35:24.711Z,38.90
2023-05-22T10:38:24.797Z,39.30
2023-05-22T10:40:52.192Z,39.60
2023-05-22T10:43:22.667Z,39.80
2023-05-22T10:45:49.740Z,39.90
2023-05-22T10:48:23.082Z,40.00
2023-05-22T10:50:54.141Z,40.10
2023-05-22T10:53:27.989Z,40.20
2023-05-22T10:55:57.428Z,40.40
2023-05-22T10:58:30.584Z,40.60
2023-05-22T11:01:17.078Z,40.80
2023-05-22T11:04:10.466Z,41.00
2023-05-22T11:06:47.494Z,41.00
2023-05-22T11:09:43.210Z,40.90
2023-05-22T11:12:28.384Z,40.70
2023-05-22T11:15:10.607Z,40.50
2023-05-22T11:17:51.686Z,40.30
2023-05-22T11:20:20.965Z,40.20
2023-05-22T11:23:05.277Z,40.10
2023-05-22T11:25:34.754Z,40.20
2023-05-22T11:28:06.422Z,40.30
2023-05-22T11:30:35.111Z,40.30
2023-05-22T11:33:02.804Z,40.20
2023-05-22T11:35:30.996Z,40.10
2023-05-22T11:37:58.780Z,40.00
2023-05-22T11:40:29.346Z,40.00
2023-05-22T11:42:56.954Z,39.90
2023-05-22T11:45:24.542Z,39.90
2023-05-22T11:47:51.987Z,40.00
2023-05-22T11:50:43.199Z,40.00
2023-05-22T11:53:07.177Z,40.00
2023-05-22T11:55:34.818Z,40.00
2023-05-22T11:58:02.727Z,40.00
2023-05-22T12:00:33.111Z,39.90
2023-05-22T12:03:00.597Z,39.90
2023-05-22T12:05:27.726Z,40.00
2023-05-22T12:07:55.064Z,40.00
2023-05-22T12:10:22.044Z,40.10
2023-05-22T12:12:49.187Z,40.20
2023-05-22T12:15:22.293Z,40.30
2023-05-22T12:17:49.429Z,40.50
2023-05-22T12:20:16.766Z,40.60
2023-05-22T12:22:44.409Z,40.70
2023-05-22T12:25:20.038Z,40.80
2023-05-22T12:27:47.702Z,41.00
2023-05-22T12:30:15.695Z,41.10
2023-05-22T12:32:49.346Z,41.30
2023-05-22T12:35:17.391Z,41.40
2023-05-22T12:37:52.436Z,41.50
2023-05-22T12:40:19.944Z,41.70
2023-05-22T12:42:48.705Z,41.90
2023-05-22T12:45:17.814Z,42.00
2023-05-22T12:47:45.201Z,42.20
2023-05-22T12:50:12.514Z,42.40
2023-05-22T12:52:39.616Z,42.70
2023-05-22T12:55:07.515Z,43.00
2023-05-22T12:57:34.958Z,43.30
2023-05-22T13:00:02.087Z,43.50
2023-05-22T13:02:29.141Z,43.60
2023-05-22T13:04:56.346Z,43.80
2023-05-22T13:07:23.303Z,44.00
2023-05-22T13:09:50.391Z,44.20
2023-05-22T13:12:19.141Z,44.60
2023-05-22T13:14:46.292Z,44.90
2023-05-22T13:17:13.239Z,45.20
2023-05-22T13:19:40.409Z,45.50
2023-05-22T13:22:07.708Z,45.80
2023-05-22T13:24:34.874Z,46.00
2023-05-22T13:27:01.986Z,46.30
2023-05-22T13:29:29.012Z,46.60
2023-05-22T13:31:56.135Z,46.90
2023-05-22T13:34:23.201Z,47.10
2023-05-22T13:36:50.661Z,47.30
2023-05-22T13:39:17.888Z,47.50
2023-05-22T13:41:47.769Z,47.60
2023-05-22T13:44:15.042Z,47.60
2023-05-22T13:46:42.116Z,47.70
2023-05-22T13:49:09.367Z,47.70
2023-05-22T13:51:36.389Z,47.80
2023-05-22T13:54:04.112Z,47.90
2023-05-22T13:56:31.170Z,47.80
2023-05-22T13:58:58.521Z,47.70
2023-05-22T14:01:25.628Z,47.60
2023-05-22T14:03:52.905Z,47.40
2023-05-22T14:06:19.962Z,47.30
2023-05-22T14:08:47.086Z,47.00
2023-05-22T14:11:16.387Z,46.70
2023-05-22T14:13:45.879Z,46.40
2023-05-22T14:16:12.963Z,46.00
2023-05-22T14:18:40.132Z,45.80
2023-05-22T14:21:07.274Z,45.60
2023-05-22T14:23:34.162Z,45.40
2023-05-22T14:26:01.166Z,45.20
2023-05-22T14:28:28.287Z,45.00
2023-05-22T14:30:56.313Z,44.80
2023-05-22T14:33:26.265Z,44.60
2023-05-22T14:35:53.401Z,44.50
2023-05-22T14:38:20.351Z,44.40
2023-05-22T14:40:47.469Z,44.30
2023-05-22T14:43:14.788Z,44.30
2023-05-22T14:45:41.945Z,44.30
2023-05-22T14:48:12.813Z,44.30
2023-05-22T14:50:40.022Z,44.30
2023-05-22T14:53:07.098Z,44.20
2023-05-22T14:55:34.089Z,44.10
2023-05-22T14:58:00.961Z,44.00
2023-05-22T15:00:28.815Z,43.80
2023-05-22T15:02:55.861Z,43.60
2023-05-22T15:05:23.273Z,43.60
2023-05-22T15:07:51.714Z,43.50
2023-05-22T15:10:18.826Z,43.40
2023-05-22T15:12:46.022Z,43.30
2023-05-22T15:15:16.170Z,43.20
2023-05-22T15:17:43.277Z,43.00
2023-05-22T15:20:11.532Z,42.90
2023-05-22T15:22:39.401Z,42.80
2023-05-22T15:25:08.954Z,42.50
2023-05-22T15:27:38.244Z,42.40
2023-05-22T15:30:06.569Z,42.20
2023-05-22T15:32:33.875Z,41.90
2023-05-22T15:35:00.982Z,41.70
2023-05-22T15:37:36.640Z,41.40
2023-05-22T15:40:06.101Z,41.10
2023-05-22T15:42:33.173Z,40.70
2023-05-22T15:45:00.641Z,40.40
2023-05-22T15:47:27.990Z,40.20
2023-05-22T15:49:54.957Z,39.90
2023-05-22T15:52:24.238Z,39.50
2023-05-22T15:54:51.378Z,39.60
2023-05-22T15:57:18.577Z,39.20
2023-05-22T15:59:47.366Z,39.00
2023-05-22T16:02:14.638Z,38.80
2023-05-22T16:04:41.809Z,38.60
2023-05-22T16:07:08.793Z,38.20
2023-05-22T16:09:36.131Z,37.90
2023-05-22T16:12:03.862Z,37.50
2023-05-22T16:14:34.409Z,37.10
2023-05-22T16:17:01.596Z,36.80
2023-05-22T16:19:28.772Z,36.40
2023-05-22T16:21:56.420Z,36.00
2023-05-22T16:24:24.077Z,35.80
2023-05-22T16:26:55.813Z,35.60
2023-05-22T16:29:22.867Z,35.40
2023-05-22T16:31:50.034Z,35.20
2023-05-22T16:34:17.731Z,35.10
2023-05-22T16:36:47.931Z,35.00
2023-05-22T16:39:15.603Z,34.70
2023-05-22T16:41:42.830Z,34.50
2023-05-22T16:44:10.219Z,34.30
2023-05-22T16:46:37.314Z,34.00
2023-05-22T16:49:04.369Z,33.80
2023-05-22T16:51:31.278Z,33.50
2023-05-22T16:53:58.244Z,33.20
2023-05-22T16:56:25.976Z,33.00
2023-05-22T16:58:53.146Z,32.70
2023-05-22T17:01:21.724Z,32.50
2023-05-22T17:03:48.918Z,32.30
2023-05-22T17:06:16.085Z,32.00
2023-05-22T17:08:44.243Z,31.80
2023-05-22T17:11:11.313Z,31.60
2023-05-22T17:13:42.905Z,31.40
2023-05-22T17:16:13.565Z,31.20
2023-05-22T17:18:40.659Z,31.10
2023-05-22T17:21:09.893Z,30.90
2023-05-22T17:23:45.792Z,30.80
2023-05-22T17:26:14.551Z,30.60
2023-05-22T17:28:41.652Z,30.50
2023-05-22T17:31:12.516Z,30.30
2023-05-22T17:33:39.607Z,30.20
2023-05-22T17:36:06.980Z,30.10
2023-05-22T17:38:37.521Z,30.00
2023-05-22T17:41:04.687Z,29.90
2023-05-22T17:43:35.218Z,29.80
2023-05-22T17:46:02.404Z,29.70
2023-05-22T17:48:29.459Z,29.60
2023-05-22T17:50:56.660Z,29.50
2023-05-22T17:53:23.665Z,29.40
2023-05-22T17:55:52.535Z,29.20
2023-05-22T17:58:29.458Z,29.10
2023-05-22T18:00:56.519Z,29.00
2023-05-22T18:03:26.612Z,28.90
2023-05-22T18:05:58.753Z,28.70
2023-05-22T18:08:28.291Z,28.60
2023-05-22T18:10:57.929Z,28.50
2023-05-22T18:13:27.590Z,28.30
2023-05-22T18:15:54.909Z,28.20
2023-05-22T18:18:22.560Z,28.10
2023-05-22T18:20:50.292Z,27.90
2023-05-22T18:23:17.514Z,27.80
2023-05-22T18:25:44.562Z,27.80
2023-05-22T18:28:11.593Z,27.60
2023-05-22T18:30:40.953Z,27.50
2023-05-22T18:33:08.221Z,27.40
2023-05-22T18:35:35.215Z,27.20
2023-05-22T18:38:02.235Z,27.10
2023-05-22T18:40:29.284Z,27.00
2023-05-22T18:42:56.267Z,26.90
2023-05-22T18:45:23.269Z,26.80
2023-05-22T18:47:50.477Z,26.60
2023-05-22T18:50:17.584Z,26.50
2023-05-22T18:52:44.736Z,26.50
2023-05-22T18:55:12.284Z,26.30
2023-05-22T18:57:39.446Z,26.20
2023-05-22T19:00:07.970Z,26.10
2023-05-22T19:02:35.188Z,26.00
2023-05-22T19:05:04.811Z,25.90
2023-05-22T19:07:32.157Z,25.80
2023-05-22T19:09:59.111Z,25.60
2023-05-22T19:12:31.421Z,25.70
2023-05-22T19:14:59.924Z,25.40
2023-05-22T19:17:27.121Z,25.30
2023-05-22T19:19:54.202Z,25.20
2023-05-22T19:22:21.268Z,25.10
2023-05-22T19:24:48.358Z,25.00
2023-05-22T19:27:15.786Z,24.90
2023-05-22T19:29:42.693Z,24.80
2023-05-22T19:32:09.806Z,24.70
2023-05-22T19:34:37.462Z,24.60
2023-05-22T19:37:04.802Z,24.50
2023-05-22T19:39:31.913Z,24.50
2023-05-22T19:41:58.909Z,24.30
2023-05-22T19:44:25.812Z,24.30
2023-05-22T19:46:52.912Z,24.10
2023-05-22T19:49:19.845Z,24.10
2023-05-22T19:51:46.862Z,24.00
2023-05-22T19:54:13.862Z,23.90
2023-05-22T19:56:41.047Z,23.80
2023-05-22T19:59:08.193Z,23.80
2023-05-22T20:01:35.464Z,23.70
2023-05-22T20:04:02.717Z,23.60
2023-05-22T20:06:33.365Z,23.60
2023-05-22T20:09:03.219Z,23.50
2023-05-22T20:11:30.228Z,23.40
2023-05-22T20:13:57.345Z,23.40
2023-05-22T20:16:28.433Z,23.20
2023-05-22T20:18:56.404Z,23.20
2023-05-22T20:21:23.390Z,23.10
2023-05-22T20:23:51.351Z,23.00
2023-05-22T20:26:19.772Z,22.90
2023-05-22T20:28:49.419Z,22.90
2023-05-22T20:31:16.548Z,22.80
2023-05-22T20:33:43.759Z,22.70
2023-05-22T20:36:10.772Z,22.60
2023-05-22T20:38:37.824Z,22.60
2023-05-22T20:41:08.670Z,22.50
2023-05-22T20:43:36.835Z,22.40
2023-05-22T20:46:06.868Z,22.30
2023-05-22T20:48:33.932Z,22.30
2023-05-22T20:51:01.069Z,22.30
2023-05-22T20:53:28.396Z,22.10
2023-05-22T20:55:57.388Z,22.20
2023-05-22T20:58:27.735Z,22.00
2023-05-22T21:00:57.604Z,22.00
2023-05-22T21:03:25.786Z,21.90
2023-05-22T21:05:53.196Z,21.80
2023-05-22T21:08:21.109Z,21.70
2023-05-22T21:10:48.305Z,21.70
2023-05-22T21:13:18.634Z,21.60
2023-05-22T21:15:45.649Z,21.50
2023-05-22T21:18:12.751Z,21.50
2023-05-22T21:20:40.021Z,21.40
2023-05-22T21:23:07.411Z,21.30
2023-05-22T21:25:34.468Z,21.30
2023-05-22T21:28:02.947Z,21.20
2023-05-22T21:30:32.013Z,21.20
2023-05-22T21:32:59.199Z,21.00
2023-05-22T21:35:26.334Z,21.20
2023-05-22T21:37:53.783Z,21.10
2023-05-22T21:40:20.875Z,21.00
2023-05-22T21:42:47.965Z,21.00
2023-05-22T21:45:18.156Z,21.00
2023-05-22T21:47:45.183Z,21.00
2023-05-22T21:50:12.356Z,20.90
2023-05-22T21:52:39.412Z,20.90
2023-05-22T21:55:09.728Z,20.90
2023-05-22T21:57:37.091Z,20.80
2023-05-22T22:00:04.625Z,20.80
2023-05-22T22:02:32.079Z,20.70
2023-05-22T22:04:59.191Z,20.70
2023-05-22T22:07:26.220Z,20.70
2023-05-22T22:09:53.371Z,20.60
2023-05-22T22:12:20.450Z,20.60
2023-05-22T22:14:47.590Z,20.60
2023-05-22T22:17:16.827Z,20.50
2023-05-22T22:19:44.613Z,20.50
2023-05-22T22:22:12.479Z,20.50
2023-05-22T22:24:39.874Z,20.50
2023-05-22T22:27:08.251Z,20.40
2023-05-22T22:29:35.417Z,20.40
2023-05-22T22:32:02.531Z,20.30
2023-05-22T22:34:32.026Z,20.40
2023-05-22T22:36:59.076Z,20.40
2023-05-22T22:39:26.522Z,20.40
2023-05-22T22:41:53.519Z,20.50
2023-05-22T22:44:20.471Z,20.40
2023-05-22T22:46:47.442Z,20.60
2023-05-22T22:49:15.766Z,20.40
2023-05-22T22:51:43.028Z,20.40
2023-05-22T22:54:10.725Z,20.40
2023-05-22T22:56:37.965Z,20.50
2023-05-22T22:59:04.970Z,20.40
2023-05-22T23:01:32.249Z,20.40
2023-05-22T23:03:59.387Z,20.40
2023-05-22T23:06:29.682Z,20.40
2023-05-22T23:08:58.911Z,20.30
2023-05-22T23:11:37.546Z,20.40
2023-05-22T23:14:08.832Z,20.30
2023-05-22T23:16:37.236Z,20.30
2023-05-22T23:19:04.946Z,20.30
2023-05-22T23:21:32.914Z,20.30
2023-05-22T23:24:04.591Z,20.30
2023-05-22T23:26:32.623Z,20.30
2023-05-22T23:29:00.529Z,20.30
2023-05-22T23:31:30.293Z,20.20
2023-05-22T23:33:58.418Z,20.20
2023-05-22T23:36:25.841Z,20.00
2023-05-22T23:38:52.971Z,20.10
2023-05-22T23:41:19.972Z,20.10
2023-05-22T23:43:47.083Z,20.10
2023-05-22T23:46:14.672Z,20.40
2023-05-22T23:48:42.825Z,20.00
2023-05-22T23:51:13.975Z,20.00
2023-05-22T23:53:42.062Z,20.00
2023-05-22T23:56:09.331Z,20.00
2023-05-22T23:58:38.227Z,19.90
